Time;durP1;ratioP1;P1;durP2;ratioP2;P2;SDS_P1;SDS_P2;PMS_P1;PMS_P2;Temp;Humidity;BMP_temperature;BMP_pressure;BME280_temperature;BME280_humidity;BME280_pressure;Samples;Min_cycle;Max_cycle;Signal;HPM_P1;HPM_P2
2023/06/04 00:01:13;;;;;;;;;;;20.10;46.10;;;;;;5035636;28;20003;-82
2023/06/04 00:03:38;;;;;;;;;;;20.10;46.10;;;;;;5035511;28;20217;-82
2023/06/04 00:06:04;;;;;;;;;;;20.00;46.10;;;;;;5035424;28;20197;-82
2023/06/04 00:08:30;;;;;;;;;;;20.00;46.10;;;;;;5034539;28;20309;-82
2023/06/04 00:10:55;;;;;;;;;;;20.00;46.00;;;;;;5034620;28;20015;-82
2023/06/04 00:13:21;;;;;;;;;;;20.00;46.00;;;;;;5036615;28;20046;-82
2023/06/04 00:15:47;;;;;;;;;;;20.00;46.10;;;;;;5037230;28;20007;-82
2023/06/04 00:18:13;;;;;;;;;;;19.90;46.00;;;;;;5037179;28;20253;-82
2023/06/04 00:20:39;;;;;;;;;;;19.90;46.00;;;;;;5037004;28;19909;-81
2023/06/04 00:23:05;;;;;;;;;;;19.90;46.00;;;;;;5058255;28;19913;-81
2023/06/04 00:25:31;;;;;;;;;;;19.90;46.10;;;;;;5057930;28;20207;-81
2023/06/04 00:27:56;;;;;;;;;;;19.90;46.10;;;;;;5061252;28;19909;-81
2023/06/04 00:30:22;;;;;;;;;;;19.90;46.10;;;;;;5061932;28;20166;-81
2023/06/04 00:32:47;;;;;;;;;;;19.90;46.10;;;;;;5041778;28;19908;-81
2023/06/04 00:35:13;;;;;;;;;;;19.80;46.10;;;;;;5041002;28;19917;-81
2023/06/04 00:37:38;;;;;;;;;;;19.80;46.10;;;;;;5059350;28;20249;-81
2023/06/04 00:40:05;;;;;;;;;;;19.80;46.10;;;;;;5041103;28;19935;-81
2023/06/04 00:42:31;;;;;;;;;;;19.80;46.10;;;;;;5058324;28;19912;-81
2023/06/04 00:44:58;;;;;;;;;;;19.80;46.10;;;;;;5041376;28;19909;-81
2023/06/04 00:47:23;;;;;;;;;;;19.80;46.10;;;;;;5040174;28;19917;-81
2023/06/04 00:49:49;;;;;;;;;;;19.70;46.10;;;;;;5041047;28;20185;-81
2023/06/04 00:52:15;;;;;;;;;;;19.70;46.20;;;;;;5042422;28;19908;-82
2023/06/04 00:54:41;;;;;;;;;;;19.70;46.10;;;;;;5042941;28;19920;-82
2023/06/04 00:57:08;;;;;;;;;;;19.70;46.20;;;;;;5042905;28;19909;-82
2023/06/04 00:59:35;;;;;;;;;;;19.70;45.80;;;;;;5042690;28;19912;-82
2023/06/04 01:02:22;;;;;;;;;;;19.70;46.20;;;;;;5049708;28;19920;-83
2023/06/04 01:04:47;;;;;;;;;;;19.70;46.20;;;;;;5040510;28;19915;-83
2023/06/04 01:07:14;;;;;;;;;;;19.70;46.20;;;;;;5039856;28;19999;-83
2023/06/04 01:09:40;;;;;;;;;;;19.60;46.20;;;;;;5055972;28;20179;-83
2023/06/04 01:12:07;;;;;;;;;;;19.60;46.20;;;;;;5039113;28;20364;-83
2023/06/04 01:14:35;;;;;;;;;;;19.60;46.20;;;;;;5039067;28;19940;-83
2023/06/04 01:17:04;;;;;;;;;;;19.60;46.20;;;;;;5038607;28;19959;-83
2023/06/04 01:19:51;;;;;;;;;;;19.60;46.20;;;;;;5040621;28;19909;-83
2023/06/04 01:22:37;;;;;;;;;;;19.60;46.20;;;;;;5038725;28;20279;-83
2023/06/04 01:25:04;;;;;;;;;;;19.50;46.20;;;;;;5040298;28;19978;-83
2023/06/04 01:27:30;;;;;;;;;;;19.50;46.20;;;;;;5057319;28;19908;-83
2023/06/04 01:29:56;;;;;;;;;;;19.50;46.20;;;;;;5042114;28;20213;-81
2023/06/04 01:32:23;;;;;;;;;;;19.50;46.30;;;;;;5041307;28;19909;-80
2023/06/04 01:34:49;;;;;;;;;;;19.50;46.30;;;;;;5041254;28;20195;-80
2023/06/04 01:37:16;;;;;;;;;;;19.50;46.30;;;;;;5041410;28;20267;-80
2023/06/04 01:39:42;;;;;;;;;;;19.50;46.30;;;;;;5058415;28;19908;-80
2023/06/04 01:42:08;;;;;;;;;;;19.40;46.30;;;;;;5040015;28;19916;-80
2023/06/04 01:44:33;;;;;;;;;;;19.40;46.30;;;;;;5057699;28;20138;-80
2023/06/04 01:46:59;;;;;;;;;;;19.40;46.30;;;;;;5039743;28;20000;-80
2023/06/04 01:49:25;;;;;;;;;;;19.40;46.30;;;;;;5036255;28;20003;-80
2023/06/04 01:51:50;;;;;;;;;;;19.40;46.30;;;;;;5036190;28;19917;-80
2023/06/04 01:54:16;;;;;;;;;;;19.40;46.30;;;;;;5037435;28;20270;-80
2023/06/04 01:56:42;;;;;;;;;;;19.40;46.30;;;;;;5054030;28;19916;-80
2023/06/04 01:59:07;;;;;;;;;;;19.30;46.30;;;;;;5037109;28;19908;-80
2023/06/04 02:01:34;;;;;;;;;;;19.30;46.30;;;;;;5038004;28;20008;-80
2023/06/04 02:03:59;;;;;;;;;;;19.30;46.30;;;;;;5038420;28;19917;-80
2023/06/04 02:06:31;;;;;;;;;;;19.30;46.30;;;;;;5055755;28;19909;-80
2023/06/04 02:08:56;;;;;;;;;;;19.30;46.30;;;;;;5036196;28;19916;-80
2023/06/04 02:11:22;;;;;;;;;;;19.30;46.40;;;;;;5036555;28;20006;-80
2023/06/04 02:13:48;;;;;;;;;;;19.30;46.40;;;;;;5055535;28;19909;-80
2023/06/04 02:16:13;;;;;;;;;;;19.20;46.30;;;;;;5037832;28;19991;-80
2023/06/04 02:18:39;;;;;;;;;;;19.20;46.40;;;;;;5039274;28;19971;-80
2023/06/04 02:21:05;;;;;;;;;;;19.20;46.40;;;;;;5039133;28;19916;-80
2023/06/04 02:23:31;;;;;;;;;;;19.20;46.40;;;;;;5040239;28;19912;-80
2023/06/04 02:25:56;;;;;;;;;;;19.20;46.40;;;;;;5039520;28;19909;-80
2023/06/04 02:28:22;;;;;;;;;;;19.20;46.40;;;;;;5040268;28;20063;-80
2023/06/04 02:30:47;;;;;;;;;;;19.20;46.50;;;;;;5039991;28;20191;-80
2023/06/04 02:33:14;;;;;;;;;;;19.10;46.50;;;;;;5040648;28;20029;-80
2023/06/04 02:35:40;;;;;;;;;;;19.10;46.50;;;;;;5039321;28;19917;-80
2023/06/04 02:38:06;;;;;;;;;;;19.10;46.50;;;;;;5039933;28;19916;-80
2023/06/04 02:40:32;;;;;;;;;;;19.10;46.50;;;;;;5038994;28;19913;-80
2023/06/04 02:42:58;;;;;;;;;;;19.10;46.50;;;;;;5038703;28;20019;-80
2023/06/04 02:45:24;;;;;;;;;;;19.10;46.50;;;;;;5037299;28;20003;-82
2023/06/04 02:47:49;;;;;;;;;;;19.00;46.50;;;;;;5037331;28;19912;-82
2023/06/04 02:50:15;;;;;;;;;;;19.00;46.50;;;;;;5036965;28;19913;-82
2023/06/04 02:52:41;;;;;;;;;;;19.00;46.50;;;;;;5036985;28;19919;-81
2023/06/04 02:55:08;;;;;;;;;;;19.00;46.50;;;;;;5037236;28;20007;-81
2023/06/04 02:57:34;;;;;;;;;;;19.00;46.60;;;;;;5037910;28;19908;-81
2023/06/04 03:00:01;;;;;;;;;;;19.00;46.60;;;;;;5038094;28;19920;-81
2023/06/04 03:02:26;;;;;;;;;;;19.00;46.60;;;;;;5038862;28;19925;-81
2023/06/04 03:04:54;;;;;;;;;;;19.00;46.60;;;;;;5056562;28;19935;-81
2023/06/04 03:07:22;;;;;;;;;;;18.90;46.60;;;;;;5039201;28;19948;-81
2023/06/04 03:09:48;;;;;;;;;;;18.90;46.60;;;;;;5038969;28;19916;-81
2023/06/04 03:12:14;;;;;;;;;;;18.90;46.60;;;;;;5039722;28;19968;-81
2023/06/04 03:14:39;;;;;;;;;;;18.90;46.60;;;;;;5038974;28;19974;-81
2023/06/04 03:17:10;;;;;;;;;;;18.90;46.60;;;;;;5039302;28;19924;-81
2023/06/04 03:19:40;;;;;;;;;;;18.90;46.60;;;;;;5056439;28;19909;-81
2023/06/04 03:22:06;;;;;;;;;;;18.90;46.70;;;;;;5039312;28;19991;-81
2023/06/04 03:24:36;;;;;;;;;;;18.90;46.70;;;;;;5038610;28;19909;-81
2023/06/04 03:27:02;;;;;;;;;;;18.90;46.70;;;;;;5039403;28;20271;-81
2023/06/04 03:29:27;;;;;;;;;;;18.80;46.70;;;;;;5038108;28;20234;-81
2023/06/04 03:31:53;;;;;;;;;;;18.80;46.70;;;;;;5056302;28;19930;-81
2023/06/04 03:34:19;;;;;;;;;;;18.80;46.70;;;;;;5056003;28;19928;-81
2023/06/04 03:36:44;;;;;;;;;;;18.80;46.70;;;;;;5038891;28;20184;-81
2023/06/04 03:39:10;;;;;;;;;;;18.80;46.70;;;;;;5037496;28;19909;-81
2023/06/04 03:41:36;;;;;;;;;;;18.80;46.70;;;;;;5038708;28;19968;-81
2023/06/04 03:44:02;;;;;;;;;;;18.80;46.70;;;;;;5038527;28;19912;-81
2023/06/04 03:46:31;;;;;;;;;;;18.80;46.70;;;;;;5038801;28;19909;-81
2023/06/04 03:48:57;;;;;;;;;;;18.80;46.70;;;;;;5038316;28;20004;-81
2023/06/04 03:51:23;;;;;;;;;;;18.80;46.80;;;;;;5038575;28;20247;-81
2023/06/04 03:53:48;;;;;;;;;;;18.80;46.80;;;;;;5038378;28;19917;-81
2023/06/04 03:56:14;;;;;;;;;;;18.80;46.80;;;;;;5056324;28;19909;-81
2023/06/04 03:58:39;;;;;;;;;;;18.80;46.80;;;;;;5041325;28;20425;-81
2023/06/04 04:01:06;;;;;;;;;;;18.70;46.80;;;;;;5041062;28;19960;-81
2023/06/04 04:03:34;;;;;;;;;;;18.80;46.80;;;;;;5040340;28;19913;-81
2023/06/04 04:06:00;;;;;;;;;;;18.70;46.80;;;;;;5057306;28;19909;-81
2023/06/04 04:08:31;;;;;;;;;;;18.70;46.80;;;;;;5040293;28;19935;-81
2023/06/04 04:10:57;;;;;;;;;;;18.70;46.80;;;;;;5040279;28;20271;-81
2023/06/04 04:13:23;;;;;;;;;;;18.70;46.80;;;;;;5058256;28;19909;-81
2023/06/04 04:15:52;;;;;;;;;;;18.70;46.80;;;;;;5041443;28;19978;-81
2023/06/04 04:18:22;;;;;;;;;;;18.70;46.80;;;;;;5041133;28;19988;-81
2023/06/04 04:20:48;;;;;;;;;;;18.70;46.80;;;;;;5040522;28;20096;-81
2023/06/04 04:23:14;;;;;;;;;;;18.80;46.80;;;;;;5039926;28;19924;-81
2023/06/04 04:25:41;;;;;;;;;;;18.80;46.80;;;;;;5057514;28;19913;-81
2023/06/04 04:28:06;;;;;;;;;;;18.80;46.80;;;;;;5040234;28;20290;-81
2023/06/04 04:30:36;;;;;;;;;;;18.80;46.80;;;;;;5040165;28;19944;-81
2023/06/04 04:33:01;;;;;;;;;;;18.80;46.70;;;;;;5040404;28;19970;-81
2023/06/04 04:35:28;;;;;;;;;;;18.80;46.70;;;;;;5058571;28;19920;-81
2023/06/04 04:37:54;;;;;;;;;;;18.80;46.70;;;;;;5041354;28;19916;-81
2023/06/04 04:40:20;;;;;;;;;;;18.80;46.70;;;;;;5057709;28;19912;-81
2023/06/04 04:42:46;;;;;;;;;;;18.80;46.60;;;;;;5046355;28;19923;-81
2023/06/04 04:45:12;;;;;;;;;;;18.90;46.60;;;;;;5059418;28;19920;-81
2023/06/04 04:47:37;;;;;;;;;;;18.90;46.70;;;;;;5038762;28;20157;-81
2023/06/04 04:50:03;;;;;;;;;;;18.90;46.70;;;;;;5038813;28;19909;-81
2023/06/04 04:52:29;;;;;;;;;;;18.90;46.60;;;;;;5056009;28;19974;-81
2023/06/04 04:54:57;;;;;;;;;;;19.00;46.60;;;;;;5056271;28;19908;-81
2023/06/04 04:57:23;;;;;;;;;;;19.00;46.60;;;;;;5056075;28;20202;-81
2023/06/04 04:59:49;;;;;;;;;;;19.00;46.50;;;;;;5038626;28;19959;-81
2023/06/04 05:02:15;;;;;;;;;;;19.10;46.50;;;;;;5040533;28;19963;-81
2023/06/04 05:04:40;;;;;;;;;;;19.10;46.50;;;;;;5041340;28;19919;-81
2023/06/04 05:07:06;;;;;;;;;;;19.10;46.50;;;;;;5057871;28;20103;-81
2023/06/04 05:09:31;;;;;;;;;;;19.20;46.40;;;;;;5058590;28;19909;-81
2023/06/04 05:11:57;;;;;;;;;;;19.20;46.40;;;;;;5038689;28;20141;-81
2023/06/04 05:14:23;;;;;;;;;;;19.20;46.30;;;;;;5039746;28;19909;-81
2023/06/04 05:16:48;;;;;;;;;;;19.30;46.40;;;;;;5040507;28;19908;-81
2023/06/04 05:19:17;;;;;;;;;;;19.30;46.30;;;;;;5040163;28;19915;-81
2023/06/04 05:21:44;;;;;;;;;;;19.40;46.30;;;;;;5040479;28;19909;-81
2023/06/04 05:24:10;;;;;;;;;;;19.40;46.20;;;;;;5040145;28;20190;-81
2023/06/04 05:26:36;;;;;;;;;;;19.50;46.20;;;;;;5040591;28;19975;-81
2023/06/04 05:29:04;;;;;;;;;;;19.50;46.20;;;;;;5058258;28;20254;-81
2023/06/04 05:31:33;;;;;;;;;;;19.50;46.10;;;;;;5057234;28;19978;-81
2023/06/04 05:34:01;;;;;;;;;;;19.60;46.10;;;;;;5039258;28;19925;-81
2023/06/04 05:36:27;;;;;;;;;;;19.70;46.10;;;;;;5057728;28;20007;-81
2023/06/04 05:38:56;;;;;;;;;;;19.70;46.00;;;;;;5040020;28;19999;-81
2023/06/04 05:41:23;;;;;;;;;;;19.80;46.00;;;;;;5057208;28;19919;-81
2023/06/04 05:43:49;;;;;;;;;;;19.90;46.00;;;;;;5038991;28;19921;-81
2023/06/04 05:46:15;;;;;;;;;;;19.90;45.80;;;;;;5055314;28;19909;-81
2023/06/04 05:48:40;;;;;;;;;;;20.00;45.70;;;;;;5055715;28;19924;-81
2023/06/04 05:51:07;;;;;;;;;;;20.10;45.60;;;;;;5038422;28;19915;-81
2023/06/04 05:53:33;;;;;;;;;;;20.20;45.50;;;;;;5039048;28;19909;-81
2023/06/04 05:55:58;;;;;;;;;;;20.40;45.50;;;;;;5038883;28;19920;-81
2023/06/04 05:58:24;;;;;;;;;;;20.40;45.40;;;;;;5055348;28;19909;-81
2023/06/04 06:00:50;;;;;;;;;;;20.60;45.40;;;;;;5037886;28;20267;-81
2023/06/04 06:03:16;;;;;;;;;;;20.70;45.30;;;;;;5035308;28;19912;-81
2023/06/04 06:05:45;;;;;;;;;;;20.80;45.20;;;;;;5036666;28;19962;-81
2023/06/04 06:08:10;;;;;;;;;;;20.90;45.10;;;;;;5037545;28;19974;-81
2023/06/04 06:10:37;;;;;;;;;;;21.00;45.00;;;;;;5038012;28;19916;-81
2023/06/04 06:13:02;;;;;;;;;;;21.10;44.90;;;;;;5038230;28;19909;-82
2023/06/04 06:15:31;;;;;;;;;;;21.20;44.90;;;;;;5055984;28;20000;-81
2023/06/04 06:17:57;;;;;;;;;;;21.30;44.80;;;;;;5038981;28;19909;-81
2023/06/04 06:20:22;;;;;;;;;;;21.40;44.70;;;;;;5054599;28;19909;-81
2023/06/04 06:22:48;;;;;;;;;;;21.50;44.70;;;;;;5037382;28;19925;-81
2023/06/04 06:25:15;;;;;;;;;;;21.60;44.60;;;;;;5037996;28;19912;-81
2023/06/04 06:27:41;;;;;;;;;;;21.70;44.60;;;;;;5052959;28;20452;-81
2023/06/04 06:30:07;;;;;;;;;;;21.80;44.50;;;;;;5037016;28;19909;-81
2023/06/04 06:32:33;;;;;;;;;;;21.90;44.50;;;;;;5036890;28;20203;-82
2023/06/04 06:34:58;;;;;;;;;;;21.90;44.30;;;;;;5036167;28;20115;-82
2023/06/04 06:37:24;;;;;;;;;;;22.00;44.30;;;;;;5036298;28;20192;-82
2023/06/04 06:39:50;;;;;;;;;;;22.20;44.20;;;;;;5037294;28;19913;-82
2023/06/04 06:42:17;;;;;;;;;;;22.30;44.20;;;;;;5053086;28;20176;-82
2023/06/04 06:44:46;;;;;;;;;;;22.40;44.10;;;;;;5035635;28;20049;-81
2023/06/04 06:47:13;;;;;;;;;;;22.50;44.10;;;;;;5034846;28;20268;-81
2023/06/04 06:49:39;;;;;;;;;;;22.60;44.00;;;;;;5037513;28;19974;-81
2023/06/04 06:52:05;;;;;;;;;;;22.70;43.90;;;;;;5036804;28;19917;-81
2023/06/04 06:54:30;;;;;;;;;;;22.80;43.80;;;;;;5037813;28;19912;-81
2023/06/04 06:56:56;;;;;;;;;;;23.00;43.70;;;;;;5052746;28;19916;-81
2023/06/04 06:59:21;;;;;;;;;;;23.20;43.60;;;;;;5052696;28;19975;-82
2023/06/04 07:01:47;;;;;;;;;;;23.50;43.50;;;;;;5034256;28;19920;-82
2023/06/04 07:04:13;;;;;;;;;;;23.70;43.20;;;;;;5034014;28;19996;-81
2023/06/04 07:06:38;;;;;;;;;;;24.00;43.00;;;;;;5032502;28;20145;-81
2023/06/04 07:09:07;;;;;;;;;;;24.30;42.70;;;;;;5049944;28;20151;-82
2023/06/04 07:11:32;;;;;;;;;;;24.70;42.40;;;;;;5036486;28;20488;-81
2023/06/04 07:14:03;;;;;;;;;;;25.10;42.10;;;;;;5038300;28;20010;-81
2023/06/04 07:16:29;;;;;;;;;;;25.40;41.80;;;;;;5038796;28;19966;-81
2023/06/04 07:18:55;;;;;;;;;;;25.80;41.50;;;;;;5038284;28;20330;-81
2023/06/04 07:21:22;;;;;;;;;;;26.10;41.30;;;;;;5037976;28;19919;-81
2023/06/04 07:23:50;;;;;;;;;;;26.40;41.10;;;;;;5038110;28;19924;-82
2023/06/04 07:26:17;;;;;;;;;;;26.60;40.80;;;;;;5051841;28;20148;-81
2023/06/04 07:28:43;;;;;;;;;;;26.90;40.70;;;;;;5035159;28;19995;-81
2023/06/04 07:31:09;;;;;;;;;;;27.20;40.50;;;;;;5034171;28;20226;-81
2023/06/04 07:33:42;;;;;;;;;;;27.40;40.30;;;;;;5035189;28;20164;-81
2023/06/04 07:36:07;;;;;;;;;;;27.60;40.20;;;;;;5049557;28;19923;-81
2023/06/04 07:38:33;;;;;;;;;;;27.80;40.00;;;;;;5032663;28;19913;-81
2023/06/04 07:40:59;;;;;;;;;;;28.00;39.90;;;;;;5032134;28;19967;-81
2023/06/04 07:43:24;;;;;;;;;;;28.20;39.80;;;;;;5049469;28;19959;-82
2023/06/04 07:45:50;;;;;;;;;;;28.40;39.70;;;;;;5032870;28;20328;-82
2023/06/04 07:48:16;;;;;;;;;;;28.60;39.60;;;;;;5049846;28;20195;-82
2023/06/04 07:50:42;;;;;;;;;;;28.70;39.50;;;;;;5033647;28;19917;-82
2023/06/04 07:53:07;;;;;;;;;;;28.80;39.50;;;;;;5032059;28;19987;-82
2023/06/04 07:55:33;;;;;;;;;;;28.90;39.40;;;;;;5032403;28;20200;-82
2023/06/04 07:57:59;;;;;;;;;;;29.10;39.30;;;;;;5032362;28;20169;-82
2023/06/04 08:00:25;;;;;;;;;;;29.30;39.30;;;;;;5033086;28;20019;-82
2023/06/04 08:02:52;;;;;;;;;;;29.50;39.20;;;;;;5032806;28;19916;-82
2023/06/04 08:05:18;;;;;;;;;;;29.60;39.10;;;;;;5033072;28;19948;-82
2023/06/04 08:07:43;;;;;;;;;;;29.80;39.00;;;;;;5032043;28;20294;-82
2023/06/04 08:10:09;;;;;;;;;;;29.90;38.90;;;;;;5038870;28;19919;-82
2023/06/04 08:12:35;;;;;;;;;;;30.10;38.80;;;;;;5030830;28;20110;-82
2023/06/04 08:15:01;;;;;;;;;;;30.20;38.70;;;;;;5031034;28;20363;-82
2023/06/04 08:17:26;;;;;;;;;;;30.40;38.60;;;;;;5050870;28;20037;-82
2023/06/04 08:19:52;;;;;;;;;;;30.50;38.50;;;;;;5034247;28;19919;-82
2023/06/04 08:22:18;;;;;;;;;;;30.70;38.50;;;;;;5033409;28;19935;-82
2023/06/04 08:24:43;;;;;;;;;;;30.90;38.30;;;;;;5034395;28;20003;-82
2023/06/04 08:27:09;;;;;;;;;;;31.00;38.20;;;;;;5034061;28;19909;-82
2023/06/04 08:29:38;;;;;;;;;;;31.20;38.20;;;;;;5051505;28;19909;-82
2023/06/04 08:32:07;;;;;;;;;;;31.30;38.10;;;;;;5050419;28;19908;-82
2023/06/04 08:34:33;;;;;;;;;;;31.40;38.00;;;;;;5021409;28;19956;-82
2023/06/04 08:36:58;;;;;;;;;;;31.60;37.90;;;;;;5011696;28;19948;-82
2023/06/04 08:39:24;;;;;;;;;;;31.70;37.80;;;;;;5029795;28;19910;-82
2023/06/04 08:41:55;;;;;;;;;;;31.80;37.80;;;;;;5013661;28;19909;-82
2023/06/04 08:44:21;;;;;;;;;;;31.90;37.70;;;;;;5015784;28;19913;-83
2023/06/04 08:46:50;;;;;;;;;;;32.00;37.70;;;;;;5016003;28;19916;-83
2023/06/04 08:49:16;;;;;;;;;;;32.10;37.70;;;;;;5015618;28;20268;-83
2023/06/04 08:51:42;;;;;;;;;;;32.20;37.60;;;;;;5035288;28;19987;-83
2023/06/04 08:54:08;;;;;;;;;;;32.30;37.50;;;;;;5016406;28;20286;-83
2023/06/04 08:56:34;;;;;;;;;;;32.30;37.50;;;;;;5015746;28;19920;-82
2023/06/04 08:59:06;;;;;;;;;;;32.40;37.50;;;;;;5015842;28;20207;-83
2023/06/04 09:01:33;;;;;;;;;;;32.40;37.50;;;;;;5016991;28;19999;-83
2023/06/04 09:04:04;;;;;;;;;;;32.40;37.60;;;;;;5016144;28;19913;-82
2023/06/04 09:06:30;;;;;;;;;;;32.40;37.60;;;;;;5017157;28;19915;-83
2023/06/04 09:09:00;;;;;;;;;;;32.40;37.60;;;;;;5016794;28;20004;-82
2023/06/04 09:11:33;;;;;;;;;;;32.30;37.70;;;;;;5016587;28;20154;-82
2023/06/04 09:14:00;;;;;;;;;;;32.30;37.70;;;;;;5015700;28;19910;-83
2023/06/04 09:16:25;;;;;;;;;;;32.20;37.80;;;;;;5016198;28;20184;-82
2023/06/04 09:18:51;;;;;;;;;;;32.00;37.80;;;;;;5017567;28;19909;-83
2023/06/04 09:21:19;;;;;;;;;;;31.80;37.90;;;;;;5034955;28;19909;-83
2023/06/04 09:23:52;;;;;;;;;;;31.50;37.90;;;;;;5032423;28;20206;-83
2023/06/04 09:26:18;;;;;;;;;;;31.10;38.00;;;;;;5016686;28;19920;-83
2023/06/04 09:28:47;;;;;;;;;;;30.70;38.10;;;;;;5018130;28;20017;-83
2023/06/04 09:31:16;;;;;;;;;;;30.40;38.30;;;;;;5017393;28;19913;-83
2023/06/04 09:33:42;;;;;;;;;;;30.00;38.40;;;;;;5021183;28;19923;-82
2023/06/04 09:36:08;;;;;;;;;;;29.70;38.50;;;;;;5036652;28;19909;-83
2023/06/04 09:38:41;;;;;;;;;;;29.50;38.70;;;;;;5053508;28;19909;-83
2023/06/04 09:41:33;;;;;;;;;;;29.30;38.90;;;;;;5054531;28;19908;-82
2023/06/04 09:44:05;;;;;;;;;;;29.10;39.00;;;;;;5052479;28;19916;-82
2023/06/04 09:46:31;;;;;;;;;;;28.90;39.10;;;;;;5035569;28;19913;-84
2023/06/04 09:49:01;;;;;;;;;;;28.80;39.20;;;;;;5052535;28;19909;-83
2023/06/04 09:51:26;;;;;;;;;;;28.70;39.30;;;;;;5035514;28;19935;-83
2023/06/04 09:53:57;;;;;;;;;;;28.60;39.50;;;;;;5051039;28;20225;-83
2023/06/04 09:56:23;;;;;;;;;;;28.50;39.50;;;;;;5033735;28;19939;-83
2023/06/04 09:58:49;;;;;;;;;;;28.40;39.50;;;;;;5054259;28;19913;-83
2023/06/04 10:01:15;;;;;;;;;;;28.40;39.70;;;;;;5035241;28;19919;-83
2023/06/04 10:03:42;;;;;;;;;;;28.30;39.60;;;;;;5033861;28;20003;-83
2023/06/04 10:06:08;;;;;;;;;;;28.20;39.70;;;;;;5034652;28;20156;-83
2023/06/04 10:08:34;;;;;;;;;;;28.20;39.80;;;;;;5033432;28;19919;-83
2023/06/04 10:11:05;;;;;;;;;;;28.10;39.80;;;;;;5050922;28;19916;-83
2023/06/04 10:13:50;;;;;;;;;;;28.10;39.90;;;;;;5032488;28;19970;-82
2023/06/04 10:16:15;;;;;;;;;;;28.00;40.00;;;;;;5052684;28;19916;-82
2023/06/04 10:18:41;;;;;;;;;;;27.90;40.00;;;;;;5033460;28;19943;-83
2023/06/04 10:21:09;;;;;;;;;;;27.90;40.00;;;;;;5049648;28;21214;-82
2023/06/04 10:23:35;;;;;;;;;;;27.80;40.10;;;;;;5033596;28;19912;-83
2023/06/04 10:26:01;;;;;;;;;;;27.70;40.10;;;;;;5033899;28;19908;-82
2023/06/04 10:28:26;;;;;;;;;;;27.60;40.20;;;;;;5049742;28;19982;-82
2023/06/04 10:30:52;;;;;;;;;;;27.60;40.30;;;;;;5032034;28;19909;-83
2023/06/04 10:33:19;;;;;;;;;;;27.50;40.30;;;;;;5051619;28;19958;-83
2023/06/04 10:35:45;;;;;;;;;;;27.40;40.40;;;;;;5051124;28;19951;-83
2023/06/04 10:38:13;;;;;;;;;;;27.40;40.50;;;;;;5050737;28;19952;-82
2023/06/04 10:40:39;;;;;;;;;;;27.30;40.50;;;;;;5034752;28;20020;-82
2023/06/04 10:43:06;;;;;;;;;;;27.20;40.60;;;;;;5034111;28;19913;-82
2023/06/04 10:45:31;;;;;;;;;;;27.20;40.70;;;;;;5031538;28;19917;-83
2023/06/04 10:48:01;;;;;;;;;;;27.20;40.80;;;;;;5031137;28;19963;-83
2023/06/04 10:50:27;;;;;;;;;;;27.10;40.90;;;;;;5047420;28;20282;-82
2023/06/04 10:52:53;;;;;;;;;;;27.00;40.80;;;;;;5029314;28;19913;-82
2023/06/04 10:55:19;;;;;;;;;;;27.00;41.00;;;;;;5030181;28;19912;-82
2023/06/04 10:57:55;;;;;;;;;;;27.00;41.00;;;;;;5053684;28;20304;-82
2023/06/04 11:00:22;;;;;;;;;;;26.90;41.00;;;;;;5037505;28;19912;-82
2023/06/04 11:02:51;;;;;;;;;;;26.90;41.10;;;;;;5031269;28;20334;-83
2023/06/04 11:05:17;;;;;;;;;;;26.80;41.10;;;;;;5031735;28;19909;-83
2023/06/04 11:07:43;;;;;;;;;;;26.80;41.10;;;;;;5031355;28;19916;-83
2023/06/04 11:10:10;;;;;;;;;;;26.70;41.20;;;;;;5031131;28;20317;-82
2023/06/04 11:12:45;;;;;;;;;;;26.70;41.20;;;;;;5030248;28;20008;-83
2023/06/04 11:15:12;;;;;;;;;;;26.60;41.20;;;;;;5032332;28;19913;-83
2023/06/04 11:17:37;;;;;;;;;;;26.60;41.30;;;;;;5029196;28;19909;-82
2023/06/04 11:20:06;;;;;;;;;;;26.60;41.30;;;;;;5029160;28;19919;-82
2023/06/04 11:22:32;;;;;;;;;;;26.50;41.40;;;;;;5046341;28;19909;-83
2023/06/04 11:25:00;;;;;;;;;;;26.50;41.40;;;;;;5043270;28;20192;-82
2023/06/04 11:27:26;;;;;;;;;;;26.50;41.50;;;;;;5028725;28;19913;-83
2023/06/04 11:29:52;;;;;;;;;;;26.40;41.50;;;;;;5046460;28;20293;-83
2023/06/04 11:32:22;;;;;;;;;;;26.40;41.60;;;;;;5045189;28;19921;-82
2023/06/04 11:34:47;;;;;;;;;;;26.40;41.70;;;;;;5030691;28;19917;-83
2023/06/04 11:37:13;;;;;;;;;;;26.40;41.60;;;;;;5031193;28;20270;-83
2023/06/04 11:39:40;;;;;;;;;;;26.40;41.70;;;;;;5032311;28;20094;-83
2023/06/04 11:42:06;;;;;;;;;;;26.40;41.80;;;;;;5032105;28;20138;-82
2023/06/04 11:44:32;;;;;;;;;;;26.30;41.70;;;;;;5029993;28;19960;-82
2023/06/04 11:46:58;;;;;;;;;;;26.30;41.80;;;;;;5029670;28;19967;-82
2023/06/04 11:49:24;;;;;;;;;;;26.20;41.70;;;;;;5029400;28;19909;-82
2023/06/04 11:51:51;;;;;;;;;;;26.20;41.70;;;;;;5030027;28;20216;-82
2023/06/04 11:54:17;;;;;;;;;;;26.20;41.80;;;;;;5047419;28;20396;-82
2023/06/04 11:56:46;;;;;;;;;;;26.20;41.80;;;;;;5030122;28;20344;-82
2023/06/04 11:59:13;;;;;;;;;;;26.20;41.90;;;;;;5027662;28;19909;-83
2023/06/04 12:01:39;;;;;;;;;;;26.10;41.90;;;;;;5047532;28;20314;-82
2023/06/04 12:04:12;;;;;;;;;;;26.10;42.00;;;;;;5029791;28;19978;-83
2023/06/04 12:06:38;;;;;;;;;;;26.10;42.10;;;;;;5027312;28;20214;-82
2023/06/04 12:09:04;;;;;;;;;;;26.10;42.20;;;;;;5047187;28;19909;-83
2023/06/04 12:11:33;;;;;;;;;;;26.00;42.10;;;;;;5029887;28;19909;-83
2023/06/04 12:13:59;;;;;;;;;;;26.00;42.20;;;;;;5030716;28;19908;-83
2023/06/04 12:16:26;;;;;;;;;;;26.00;42.20;;;;;;5028621;28;20086;-82
2023/06/04 12:18:52;;;;;;;;;;;26.00;42.20;;;;;;5030277;28;20011;-83
2023/06/04 12:21:19;;;;;;;;;;;26.00;42.30;;;;;;5051030;28;20287;-83
2023/06/04 12:23:45;;;;;;;;;;;26.00;42.30;;;;;;5046606;28;19947;-82
2023/06/04 12:26:28;;;;;;;;;;;25.90;42.30;;;;;;5031623;28;19913;-82
2023/06/04 12:29:01;;;;;;;;;;;26.00;42.40;;;;;;5029210;28;19915;-82
2023/06/04 12:31:31;;;;;;;;;;;25.90;42.40;;;;;;5047432;28;20098;-83
2023/06/04 12:34:00;;;;;;;;;;;25.90;42.40;;;;;;5031719;28;20403;-83
2023/06/04 12:36:26;;;;;;;;;;;25.90;42.50;;;;;;5031759;28;19991;-82
2023/06/04 12:38:52;;;;;;;;;;;25.90;42.30;;;;;;5049461;28;20319;-83
2023/06/04 12:41:17;;;;;;;;;;;25.90;42.20;;;;;;5031402;28;19940;-82
2023/06/04 12:43:44;;;;;;;;;;;25.80;42.30;;;;;;5031178;28;19913;-82
2023/06/04 12:46:09;;;;;;;;;;;25.80;42.40;;;;;;5031493;28;19941;-82
2023/06/04 12:48:35;;;;;;;;;;;25.80;42.50;;;;;;5034216;28;20279;-82
2023/06/04 12:51:00;;;;;;;;;;;25.80;42.50;;;;;;5032818;28;19916;-82
2023/06/04 12:53:26;;;;;;;;;;;25.80;42.50;;;;;;5033053;28;19909;-83
2023/06/04 12:55:52;;;;;;;;;;;25.80;42.50;;;;;;5051263;28;20019;-83
2023/06/04 12:58:17;;;;;;;;;;;25.80;42.50;;;;;;5032859;28;19909;-83
2023/06/04 13:00:43;;;;;;;;;;;25.80;42.60;;;;;;5049743;28;20035;-83
2023/06/04 13:03:08;;;;;;;;;;;25.80;42.40;;;;;;5049216;28;20150;-83
2023/06/04 13:05:35;;;;;;;;;;;25.70;42.40;;;;;;5047718;28;19909;-82
2023/06/04 13:08:01;;;;;;;;;;;25.70;42.50;;;;;;5046748;28;19909;-82
2023/06/04 13:10:27;;;;;;;;;;;25.70;42.60;;;;;;5026171;28;19909;-82
2023/06/04 13:12:53;;;;;;;;;;;25.70;42.60;;;;;;5046265;28;19976;-82
2023/06/04 13:15:18;;;;;;;;;;;25.70;42.60;;;;;;5046480;28;19908;-82
2023/06/04 13:17:44;;;;;;;;;;;25.70;42.60;;;;;;5048452;28;19909;-82
2023/06/04 13:20:10;;;;;;;;;;;25.70;42.50;;;;;;5031624;28;19908;-82
2023/06/04 13:22:35;;;;;;;;;;;25.70;42.60;;;;;;5048865;28;19940;-82
2023/06/04 13:25:01;;;;;;;;;;;25.70;42.70;;;;;;5031635;28;19956;-82
2023/06/04 13:27:27;;;;;;;;;;;25.70;42.70;;;;;;5031543;28;19971;-82
2023/06/04 13:29:52;;;;;;;;;;;25.70;42.70;;;;;;5048975;28;20241;-82
2023/06/04 13:32:18;;;;;;;;;;;25.70;43.20;;;;;;5047750;28;19948;-84
2023/06/04 13:34:44;;;;;;;;;;;25.70;42.80;;;;;;5047671;28;19927;-84
2023/06/04 13:37:14;;;;;;;;;;;25.70;42.80;;;;;;5031999;28;19909;-82
2023/06/04 13:39:39;;;;;;;;;;;25.60;42.80;;;;;;5035436;28;20064;-83
2023/06/04 13:42:05;;;;;;;;;;;25.60;42.80;;;;;;5038145;28;20275;-81
2023/06/04 13:44:30;;;;;;;;;;;25.60;42.60;;;;;;5052594;28;19928;-81
2023/06/04 13:46:58;;;;;;;;;;;25.60;42.70;;;;;;5053941;28;19923;-82
2023/06/04 13:49:24;;;;;;;;;;;25.60;42.80;;;;;;5037521;28;19909;-81
2023/06/04 13:51:49;;;;;;;;;;;25.60;42.80;;;;;;5052804;28;19931;-81
2023/06/04 13:54:15;;;;;;;;;;;25.60;42.80;;;;;;5037970;28;19916;-81
2023/06/04 13:56:41;;;;;;;;;;;25.60;42.40;;;;;;5051962;28;19967;-81
2023/06/04 13:59:07;;;;;;;;;;;25.60;42.60;;;;;;5035291;28;19970;-81
2023/06/04 14:01:32;;;;;;;;;;;25.60;42.70;;;;;;5031876;28;19931;-82
2023/06/04 14:04:01;;;;;;;;;;;25.60;42.40;;;;;;5030482;28;20183;-81
2023/06/04 14:06:26;;;;;;;;;;;25.60;42.60;;;;;;5027647;28;19908;-81
2023/06/04 14:08:52;;;;;;;;;;;25.60;42.60;;;;;;5027598;28;19919;-82
2023/06/04 14:11:17;;;;;;;;;;;25.60;42.60;;;;;;5046278;28;19916;-81
2023/06/04 14:13:44;;;;;;;;;;;25.60;42.50;;;;;;5028999;28;19909;-81